createdAt,value
2023-04-06T00:01:47.351Z,99685.70
2023-04-06T00:04:17.194Z,99683.50
2023-04-06T00:06:46.946Z,99672.75
2023-04-06T00:09:17.884Z,99674.64
2023-04-06T00:11:47.528Z,99678.73
2023-04-06T00:14:18.579Z,99681.29
2023-04-06T00:16:47.632Z,99673.75
2023-04-06T00:19:16.938Z,99664.02
2023-04-06T00:21:46.447Z,99661.93
2023-04-06T00:24:15.665Z,99659.52
2023-04-06T00:26:44.467Z,99666.98
2023-04-06T00:29:13.981Z,99662.38
2023-04-06T00:31:42.979Z,99660.17
2023-04-06T00:34:12.027Z,99668.67
2023-04-06T00:36:42.074Z,99664.06
2023-04-06T00:39:11.696Z,99664.91
2023-04-06T00:41:41.334Z,99652.95
2023-04-06T00:44:10.470Z,99647.82
2023-04-06T00:46:39.402Z,99659.05
2023-04-06T00:49:10.119Z,99659.38
2023-04-06T00:51:39.379Z,99663.78
2023-04-06T00:54:09.947Z,99656.77
2023-04-06T00:56:40.558Z,99653.00
2023-04-06T00:59:10.416Z,99653.32
2023-04-06T01:01:41.519Z,99652.16
2023-04-06T01:04:14.094Z,99647.22
2023-04-06T01:06:44.817Z,99654.16
2023-04-06T01:09:14.143Z,99648.70
2023-04-06T01:11:44.198Z,99644.30
2023-04-06T01:14:15.603Z,99641.89
2023-04-06T01:16:49.787Z,99639.68
2023-04-06T01:19:21.944Z,99644.41
2023-04-06T01:21:54.448Z,99638.12
2023-04-06T01:24:25.016Z,99637.08
2023-04-06T01:27:14.915Z,99624.80
2023-04-06T01:29:49.615Z,99635.71
2023-04-06T01:32:20.659Z,99634.87
2023-04-06T01:34:52.467Z,99629.53
2023-04-06T01:37:21.294Z,99637.20
2023-04-06T01:39:51.555Z,99627.13
2023-04-06T01:42:22.092Z,99632.06
2023-04-06T01:44:51.568Z,99633.55
2023-04-06T01:47:21.411Z,99633.55
2023-04-06T01:49:51.303Z,99631.45
2023-04-06T01:52:22.140Z,99628.01
2023-04-06T01:54:54.628Z,99622.67
2023-04-06T01:57:26.573Z,99622.47
2023-04-06T01:59:59.569Z,99621.02
2023-04-06T02:02:35.155Z,99623.23
2023-04-06T02:05:06.969Z,99615.36
2023-04-06T02:07:37.531Z,99614.12
2023-04-06T02:10:14.814Z,99605.73
2023-04-06T02:12:45.228Z,99617.81
2023-04-06T02:15:16.869Z,99609.94
2023-04-06T02:17:47.551Z,99609.42
2023-04-06T02:20:16.601Z,99618.77
2023-04-06T02:22:47.077Z,99616.03
2023-04-06T02:25:17.752Z,99608.69
2023-04-06T02:27:47.117Z,99598.62
2023-04-06T02:30:17.915Z,99596.56
2023-04-06T02:32:47.360Z,99601.50
2023-04-06T02:35:16.653Z,99597.84
2023-04-06T02:37:47.408Z,99599.84
2023-04-06T02:40:16.485Z,99596.27
2023-04-06T02:42:46.137Z,99599.32
2023-04-06T02:45:15.979Z,99600.48
2023-04-06T02:47:48.199Z,99607.42
2023-04-06T02:50:18.675Z,99601.12
2023-04-06T02:52:49.493Z,99614.91
2023-04-06T02:55:19.555Z,99613.55
2023-04-06T02:57:50.551Z,99610.30
2023-04-06T03:00:21.751Z,99611.98
2023-04-06T03:02:52.143Z,99602.42
2023-04-06T03:05:21.555Z,99598.65
2023-04-06T03:07:53.065Z,99595.20
2023-04-06T03:10:25.410Z,99591.30
2023-04-06T03:12:54.592Z,99592.14
2023-04-06T03:15:28.380Z,99603.91
2023-04-06T03:18:00.887Z,99599.41
2023-04-06T03:20:38.247Z,99611.17
2023-04-06T03:23:08.213Z,99595.31
2023-04-06T03:25:41.051Z,99601.20
2023-04-06T03:28:11.630Z,99606.25
2023-04-06T03:30:42.416Z,99601.63
2023-04-06T03:33:11.813Z,99595.97
2023-04-06T03:35:43.475Z,99601.75
2023-04-06T03:38:14.345Z,99608.05
2023-04-06T03:40:43.640Z,99601.75
2023-04-06T03:43:12.603Z,99601.95
2023-04-06T03:45:41.727Z,99601.11
2023-04-06T03:48:11.552Z,99605.52
2023-04-06T03:50:43.507Z,99607.94
2023-04-06T03:53:12.893Z,99603.84
2023-04-06T03:55:43.185Z,99605.20
2023-04-06T03:58:14.052Z,99599.54
2023-04-06T04:00:44.531Z,99611.63
2023-04-06T04:03:16.610Z,99605.52
2023-04-06T04:05:45.812Z,99615.40
2023-04-06T04:08:16.491Z,99613.31
2023-04-06T04:10:46.904Z,99616.04
2023-04-06T04:13:15.538Z,99618.04
2023-04-06T04:15:48.894Z,99619.20
2023-04-06T04:18:18.334Z,99621.52
2023-04-06T04:20:47.497Z,99617.22
2023-04-06T04:23:16.616Z,99624.37
2023-04-06T04:25:46.513Z,99626.38
2023-04-06T04:28:15.742Z,99621.23
2023-04-06T04:30:47.615Z,99624.59
2023-04-06T04:33:16.750Z,99624.91
2023-04-06T04:35:45.643Z,99617.67
2023-04-06T04:38:17.641Z,99628.39
2023-04-06T04:40:49.418Z,99625.77
2023-04-06T04:43:20.128Z,99624.41
2023-04-06T04:45:50.123Z,99625.77
2023-04-06T04:48:22.040Z,99632.08
2023-04-06T04:50:56.273Z,99634.92
2023-04-06T04:53:27.752Z,99631.88
2023-04-06T04:56:00.888Z,99639.02
2023-04-06T04:58:32.583Z,99635.24
2023-04-06T05:01:01.726Z,99641.66
2023-04-06T05:03:33.786Z,99641.45
2023-04-06T05:06:06.435Z,99648.08
2023-04-06T05:08:37.364Z,99645.66
2023-04-06T05:11:06.868Z,99635.37
2023-04-06T05:13:39.515Z,99633.69
2023-04-06T05:16:13.198Z,99634.00
2023-04-06T05:18:42.535Z,99631.91
2023-04-06T05:21:13.042Z,99639.38
2023-04-06T05:23:43.832Z,99646.31
2023-04-06T05:26:13.904Z,99647.62
2023-04-06T05:28:46.070Z,99643.11
2023-04-06T05:31:17.261Z,99642.90
2023-04-06T05:33:52.103Z,99640.38
2023-04-06T05:36:22.805Z,99642.91
2023-04-06T05:38:54.022Z,99627.98
2023-04-06T05:41:27.522Z,99634.41
2023-04-06T05:43:56.864Z,99648.50
2023-04-06T05:46:26.726Z,99635.46
2023-04-06T05:48:57.869Z,99643.45
2023-04-06T05:51:29.014Z,99641.36
2023-04-06T05:54:00.431Z,99634.95
2023-04-06T05:56:31.272Z,99637.78
2023-04-06T05:59:00.574Z,99639.05
2023-04-06T06:01:31.966Z,99640.31
2023-04-06T06:04:03.432Z,99645.36
2023-04-06T06:06:34.612Z,99644.63
2023-04-06T06:09:06.145Z,99649.05
2023-04-06T06:11:39.038Z,99651.36
2023-04-06T06:14:08.387Z,99653.16
2023-04-06T06:16:39.177Z,99655.47
2023-04-06T06:19:10.532Z,99649.58
2023-04-06T06:21:39.311Z,99638.73
2023-04-06T06:24:10.798Z,99644.77
2023-04-06T06:26:40.537Z,99645.28
2023-04-06T06:29:13.459Z,99643.81
2023-04-06T06:31:43.690Z,99641.06
2023-04-06T06:34:14.135Z,99654.95
2023-04-06T06:36:48.346Z,99647.47
2023-04-06T06:39:18.644Z,99643.56
2023-04-06T06:41:49.479Z,99647.34
2023-04-06T06:44:19.376Z,99644.41
2023-04-06T06:46:49.843Z,99639.66
2023-04-06T06:49:20.651Z,99648.29
2023-04-06T06:51:49.671Z,99644.69
2023-04-06T06:54:19.707Z,99648.72
2023-04-06T06:56:48.461Z,99645.33
2023-04-06T06:59:17.453Z,99647.95
2023-04-06T07:01:46.769Z,99651.94
2023-04-06T07:04:17.176Z,99648.33
2023-04-06T07:06:47.674Z,99654.00
2023-04-06T07:09:16.807Z,99655.04
2023-04-06T07:11:46.922Z,99648.91
2023-04-06T07:14:17.664Z,99652.36
2023-04-06T07:16:47.686Z,99647.06
2023-04-06T07:19:18.037Z,99644.73
2023-04-06T07:21:47.031Z,99645.05
2023-04-06T07:24:16.200Z,99660.12
2023-04-06T07:26:45.563Z,99658.75
2023-04-06T07:29:14.917Z,99658.00
2023-04-06T07:31:43.711Z,99648.50
2023-04-06T07:34:13.347Z,99642.27
2023-04-06T07:36:43.834Z,99648.38
2023-04-06T07:39:12.696Z,99644.57
2023-04-06T07:41:42.076Z,99641.92
2023-04-06T07:44:11.240Z,99653.01
2023-04-06T07:46:41.003Z,99653.41
2023-04-06T07:49:11.806Z,99659.08
2023-04-06T07:51:41.552Z,99657.27
2023-04-06T07:54:11.107Z,99654.39
2023-04-06T07:56:39.815Z,99658.59
2023-04-06T07:59:09.516Z,99663.64
2023-04-06T08:01:39.333Z,99667.84
2023-04-06T08:04:09.105Z,99669.30
2023-04-06T08:06:38.876Z,99661.92
2023-04-06T08:09:09.904Z,99668.87
2023-04-06T08:11:39.588Z,99666.74
2023-04-06T08:14:09.166Z,99668.29
2023-04-06T08:16:39.903Z,99668.16
2023-04-06T08:19:10.614Z,99668.42
2023-04-06T08:21:40.853Z,99661.29
2023-04-06T08:24:10.179Z,99663.98
2023-04-06T08:26:39.975Z,99659.53
2023-04-06T08:29:10.912Z,99672.50
2023-04-06T08:31:40.351Z,99664.61
2023-04-06T08:34:12.220Z,99674.83
2023-04-06T08:36:42.843Z,99664.69
2023-04-06T08:39:11.558Z,99654.56
2023-04-06T08:41:45.674Z,99667.52
2023-04-06T08:44:16.831Z,99664.78
2023-04-06T08:46:46.265Z,99663.72
2023-04-06T08:49:15.236Z,99660.13
2023-04-06T08:51:44.709Z,99659.06
2023-04-06T08:54:13.640Z,99658.53
2023-04-06T08:56:43.819Z,99664.02
2023-04-06T08:59:13.255Z,99662.42
2023-04-06T09:01:42.619Z,99658.62
2023-04-06T09:04:13.392Z,99654.19
2023-04-06T09:06:43.180Z,99663.27
2023-04-06T09:09:13.091Z,99661.14
2023-04-06T09:11:50.469Z,99661.75
2023-04-06T09:14:38.555Z,99668.62
2023-04-06T09:17:12.648Z,99677.47
2023-04-06T09:19:48.550Z,99668.92
2023-04-06T09:22:17.919Z,99674.41
2023-04-06T09:24:55.530Z,99680.97
2023-04-06T09:27:36.231Z,99679.28
2023-04-06T09:30:12.385Z,99677.92
2023-04-06T09:32:50.429Z,99672.95
2023-04-06T09:35:25.022Z,99676.55
2023-04-06T09:37:55.002Z,99682.26
2023-04-06T09:40:25.205Z,99687.22
2023-04-06T09:42:55.571Z,99693.23
2023-04-06T09:45:24.557Z,99701.08
2023-04-06T09:47:55.929Z,99706.17
2023-04-06T09:50:26.929Z,99717.79
2023-04-06T09:52:56.564Z,99711.47
2023-04-06T09:55:30.721Z,99709.30
2023-04-06T09:58:05.035Z,99703.42
2023-04-06T10:00:53.095Z,99711.25
2023-04-06T10:03:53.439Z,99713.52
2023-04-06T10:06:24.301Z,99726.30
2023-04-06T10:08:55.229Z,99721.69
2023-04-06T10:11:26.095Z,99720.35
2023-04-06T10:13:55.449Z,99719.86
2023-04-06T10:16:25.672Z,99723.26
2023-04-06T10:19:01.287Z,99722.02
2023-04-06T10:21:31.707Z,99719.18
2023-04-06T10:24:03.210Z,99726.47
2023-04-06T10:26:32.919Z,99726.91
2023-04-06T10:29:07.997Z,99729.23
2023-04-06T10:31:41.120Z,99728.27
2023-04-06T10:34:11.174Z,99725.53
2023-04-06T10:36:41.727Z,99735.78
2023-04-06T10:39:11.094Z,99736.30
2023-04-06T10:41:45.902Z,99745.05
2023-04-06T10:44:25.944Z,99738.42
2023-04-06T10:47:02.883Z,99740.10
2023-04-06T10:49:31.598Z,99747.80
2023-04-06T10:52:01.102Z,99743.03
2023-04-06T10:54:30.852Z,99746.62
2023-04-06T10:57:00.515Z,99747.45
2023-04-06T10:59:31.840Z,99748.74
2023-04-06T11:02:01.147Z,99751.80
2023-04-06T11:04:32.253Z,99751.27
2023-04-06T11:07:02.973Z,99752.73
2023-04-06T11:09:34.293Z,99758.00
2023-04-06T11:12:03.925Z,99751.45
2023-04-06T11:14:33.388Z,99760.52
2023-04-06T11:17:03.361Z,99761.14
2023-04-06T11:19:34.265Z,99765.57
2023-04-06T11:22:09.289Z,99766.10
2023-04-06T11:24:38.792Z,99778.00
2023-04-06T11:27:07.938Z,99772.20
2023-04-06T11:29:38.831Z,99770.84
2023-04-06T11:32:09.396Z,99774.42
2023-04-06T11:34:40.242Z,99780.00
2023-04-06T11:37:12.260Z,99779.25
2023-04-06T11:39:53.140Z,99778.51
2023-04-06T11:42:30.181Z,99784.30
2023-04-06T11:44:59.179Z,99787.14
2023-04-06T11:47:33.602Z,99783.66
2023-04-06T11:50:11.674Z,99786.48
2023-04-06T11:52:42.054Z,99783.62
2023-04-06T11:55:18.153Z,99790.48
2023-04-06T11:57:47.447Z,99784.25
2023-04-06T12:00:18.889Z,99792.56
2023-04-06T12:02:49.961Z,99784.34
2023-04-06T12:05:19.736Z,99788.64
2023-04-06T12:07:50.205Z,99793.38
2023-04-06T12:10:19.772Z,99789.27
2023-04-06T12:12:49.101Z,99793.38
2023-04-06T12:15:18.685Z,99789.57
2023-04-06T12:17:48.218Z,99782.06
2023-04-06T12:20:25.710Z,99781.84
2023-04-06T12:22:50.728Z,99784.45
2023-04-06T12:25:20.278Z,99775.56
2023-04-06T12:27:50.715Z,99784.32
2023-04-06T12:30:22.782Z,99778.51
2023-04-06T12:32:53.601Z,99779.31
2023-04-06T12:35:22.993Z,99777.58
2023-04-06T12:37:52.163Z,99782.94
2023-04-06T12:40:21.711Z,99781.34
2023-04-06T12:42:50.782Z,99783.87
2023-04-06T12:45:20.246Z,99783.95
2023-04-06T12:47:50.723Z,99786.25
2023-04-06T12:50:19.787Z,99780.23
2023-04-06T12:52:53.853Z,99785.81
2023-04-06T12:55:23.797Z,99782.00
2023-04-06T12:57:56.907Z,99780.09
2023-04-06T13:00:30.317Z,99784.22
2023-04-06T13:03:02.503Z,99775.84
2023-04-06T13:05:33.726Z,99781.73
2023-04-06T13:08:04.465Z,99788.06
2023-04-06T13:10:35.173Z,99783.72
2023-04-06T13:13:05.474Z,99782.48
2023-04-06T13:15:35.943Z,99784.61
2023-04-06T13:18:05.900Z,99784.39
2023-04-06T13:20:34.797Z,99788.51
2023-04-06T13:23:03.399Z,99793.16
2023-04-06T13:25:33.525Z,99788.20
2023-04-06T13:28:02.229Z,99793.91
2023-04-06T13:30:31.537Z,99786.96
2023-04-06T13:33:01.911Z,99795.50
2023-04-06T13:35:31.604Z,99789.09
2023-04-06T13:38:02.818Z,99792.81
2023-04-06T13:40:32.743Z,99796.75
2023-04-06T13:43:01.936Z,99793.96
2023-04-06T13:45:32.502Z,99805.38
2023-04-06T13:48:02.015Z,99801.39
2023-04-06T13:50:31.388Z,99803.92
2023-04-06T13:53:00.166Z,99801.94
2023-04-06T13:55:32.413Z,99796.02
2023-04-06T13:58:03.626Z,99793.80
2023-04-06T14:00:33.591Z,99794.23
2023-04-06T14:03:06.057Z,99792.25
2023-04-06T14:05:38.712Z,99798.88
2023-04-06T14:08:11.131Z,99797.95
2023-04-06T14:10:46.805Z,99798.70
2023-04-06T14:13:20.701Z,99801.98
2023-04-06T14:15:54.839Z,99792.38
2023-04-06T14:18:24.319Z,99800.91
2023-04-06T14:20:56.887Z,99796.58
2023-04-06T14:23:27.334Z,99797.64
2023-04-06T14:26:24.825Z,99798.48
2023-04-06T14:29:03.171Z,99801.23
2023-04-06T14:31:39.347Z,99794.37
2023-04-06T14:34:15.628Z,99804.81
2023-04-06T14:36:54.981Z,99802.37
2023-04-06T14:39:26.485Z,99805.44
2023-04-06T14:41:55.418Z,99804.38
2023-04-06T14:44:24.432Z,99802.16
2023-04-06T14:46:53.210Z,99806.90
2023-04-06T14:49:22.299Z,99810.27
2023-04-06T14:51:52.569Z,99807.52
2023-04-06T14:54:23.252Z,99806.80
2023-04-06T14:56:57.740Z,99810.39
2023-04-06T15:02:00.236Z,99809.86
2023-04-06T15:04:40.819Z,99810.17
2023-04-06T15:07:13.182Z,99813.76
2023-04-06T15:09:43.881Z,99803.92
2023-04-06T15:12:12.886Z,99814.38
2023-04-06T15:14:41.739Z,99813.44
2023-04-06T15:17:10.754Z,99806.89
2023-04-06T15:19:39.726Z,99806.66
2023-04-06T15:22:09.649Z,99811.63
2023-04-06T15:24:39.351Z,99813.31
2023-04-06T15:27:09.774Z,99813.31
2023-04-06T15:29:39.566Z,99817.11
2023-04-06T15:32:08.402Z,99821.86
2023-04-06T15:34:37.295Z,99823.00
2023-04-06T15:37:06.385Z,99824.91
2023-04-06T15:39:35.281Z,99826.28
2023-04-06T15:42:05.660Z,99827.03
2023-04-06T15:44:35.094Z,99831.99
2023-04-06T15:47:03.979Z,99829.47
2023-04-06T15:49:32.898Z,99826.63
2023-04-06T15:52:07.525Z,99827.91
2023-04-06T15:54:38.212Z,99827.79
2023-04-06T15:57:08.101Z,99833.81
2023-04-06T15:59:37.131Z,99829.91
2023-04-06T16:02:06.695Z,99834.12
2023-04-06T16:04:36.065Z,99831.06
2023-04-06T16:07:05.292Z,99829.06
2023-04-06T16:09:34.215Z,99831.69
2023-04-06T16:12:03.180Z,99830.00
2023-04-06T16:14:32.159Z,99836.02
2023-04-06T16:17:01.839Z,99835.19
2023-04-06T16:19:31.203Z,99836.77
2023-04-06T16:22:01.286Z,99839.52
2023-04-06T16:24:31.611Z,99841.11
2023-04-06T16:27:01.961Z,99844.38
2023-04-06T16:29:33.397Z,99844.60
2023-04-06T16:32:04.026Z,99846.19
2023-04-06T16:34:36.670Z,99851.99
2023-04-06T16:37:06.083Z,99852.52
2023-04-06T16:39:35.840Z,99859.69
2023-04-06T16:42:05.953Z,99874.91
2023-04-06T16:44:34.940Z,99879.05
2023-04-06T16:47:04.391Z,99881.81
2023-04-06T16:49:34.456Z,99885.95
2023-04-06T16:52:05.322Z,99890.61
2023-04-06T16:54:36.249Z,99902.45
2023-04-06T16:57:06.994Z,99901.19
2023-04-06T16:59:35.891Z,99906.26
2023-04-06T17:02:06.285Z,99900.05
2023-04-06T17:04:37.549Z,99916.08
2023-04-06T17:07:07.052Z,99902.66
2023-04-06T17:09:35.889Z,99916.80
2023-04-06T17:12:06.800Z,99913.42
2023-04-06T17:14:35.875Z,99921.33
2023-04-06T17:17:04.511Z,99929.55
2023-04-06T17:19:34.834Z,99932.30
2023-04-06T17:22:04.091Z,99929.66
2023-04-06T17:24:33.092Z,99929.98
2023-04-06T17:27:03.010Z,99931.45
2023-04-06T17:29:36.233Z,99931.67
2023-04-06T17:32:06.275Z,99935.46
2023-04-06T17:34:36.378Z,99937.89
2023-04-06T17:37:05.378Z,99931.56
2023-04-06T17:39:34.475Z,99927.66
2023-04-06T17:42:04.765Z,99936.09
2023-04-06T17:44:33.939Z,99935.78
2023-04-06T17:47:03.578Z,99934.09
2023-04-06T17:49:33.924Z,99934.94
2023-04-06T17:52:03.179Z,99943.16
2023-04-06T17:54:35.563Z,99942.84
2023-04-06T17:57:07.317Z,99940.95
2023-04-06T17:59:36.207Z,99946.63
2023-04-06T18:02:06.997Z,99949.91
2023-04-06T18:04:38.240Z,99960.02
2023-04-06T18:07:07.202Z,99960.44
2023-04-06T18:09:39.201Z,99965.49
2023-04-06T18:12:08.452Z,99967.07
2023-04-06T18:14:39.026Z,99967.80
2023-04-06T18:17:09.827Z,99966.75
2023-04-06T18:19:42.004Z,99971.07
2023-04-06T18:22:11.924Z,99975.39
2023-04-06T18:24:43.333Z,99975.80
2023-04-06T18:27:12.925Z,99968.53
2023-04-06T18:29:47.381Z,99975.91
2023-04-06T18:32:17.279Z,99975.80
2023-04-06T18:34:46.628Z,99975.36
2023-04-06T18:37:16.033Z,99980.20
2023-04-06T18:39:50.428Z,99975.14
2023-04-06T18:42:20.581Z,99978.61
2023-04-06T18:44:49.594Z,99981.84
2023-04-06T18:47:19.263Z,99978.27
2023-04-06T18:49:48.113Z,99983.11
2023-04-06T18:52:17.658Z,99987.10
2023-04-06T18:54:46.690Z,99988.79
2023-04-06T18:57:17.897Z,99995.31
2023-04-06T18:59:48.734Z,99992.15
2023-04-06T19:02:19.657Z,99996.25
2023-04-06T19:04:48.683Z,99998.15
2023-04-06T19:07:17.948Z,99996.98
2023-04-06T19:09:48.553Z,100008.98
2023-04-06T19:12:17.629Z,100017.61
2023-04-06T19:14:48.573Z,100022.45
2023-04-06T19:17:18.478Z,100022.86
2023-04-06T19:19:48.624Z,100032.70
2023-04-06T19:22:17.792Z,100034.80
2023-04-06T19:24:49.290Z,100044.14
2023-04-06T19:27:18.347Z,100051.16
2023-04-06T19:29:48.659Z,100060.38
2023-04-06T19:32:17.807Z,100059.58
2023-04-06T19:34:46.749Z,100062.84
2023-04-06T19:37:15.666Z,100067.95
2023-04-06T19:39:44.585Z,100073.25
2023-04-06T19:42:20.171Z,100072.67
2023-04-06T19:44:49.374Z,100075.35
2023-04-06T19:47:18.385Z,100073.09
2023-04-06T19:49:47.438Z,100080.39
2023-04-06T19:52:16.781Z,100074.15
2023-04-06T19:54:46.856Z,100066.53
2023-04-06T19:57:16.197Z,100069.66
2023-04-06T19:59:46.108Z,100073.47
2023-04-06T20:02:14.926Z,100070.42
2023-04-06T20:04:44.412Z,100068.92
2023-04-06T20:07:14.821Z,100072.38
2023-04-06T20:09:43.833Z,100072.44
2023-04-06T20:12:12.900Z,100083.44
2023-04-06T20:14:42.018Z,100084.67
2023-04-06T20:17:12.325Z,100082.65
2023-04-06T20:19:43.391Z,100084.02
2023-04-06T20:22:13.019Z,100086.23
2023-04-06T20:24:43.294Z,100094.95
2023-04-06T20:27:12.670Z,100093.97
2023-04-06T20:29:42.536Z,100096.70
2023-04-06T20:32:11.982Z,100099.11
2023-04-06T20:34:41.657Z,100105.61
2023-04-06T20:37:11.414Z,100101.58
2023-04-06T20:39:40.462Z,100108.59
2023-04-06T20:42:10.180Z,100118.03
2023-04-06T20:44:41.956Z,100118.28
2023-04-06T20:47:11.138Z,100126.86
2023-04-06T20:49:41.336Z,100124.38
2023-04-06T20:52:10.281Z,100129.95
2023-04-06T20:54:39.542Z,100127.33
2023-04-06T20:57:08.416Z,100132.29
2023-04-06T20:59:37.718Z,100134.22
2023-04-06T21:02:07.032Z,100137.99
2023-04-06T21:04:37.366Z,100137.34
2023-04-06T21:07:06.966Z,100143.14
2023-04-06T21:09:39.333Z,100142.48
2023-04-06T21:12:09.033Z,100148.13
2023-04-06T21:14:37.772Z,100159.23
2023-04-06T21:17:07.468Z,100156.89
2023-04-06T21:19:37.834Z,100152.66
2023-04-06T21:22:07.095Z,100160.52
2023-04-06T21:24:37.571Z,100164.47
2023-04-06T21:27:08.290Z,100164.19
2023-04-06T21:29:39.824Z,100161.31
2023-04-06T21:32:09.430Z,100174.30
2023-04-06T21:34:38.679Z,100169.36
2023-04-06T21:37:09.179Z,100172.13
2023-04-06T21:39:39.215Z,100174.91
2023-04-06T21:42:08.166Z,100178.70
2023-04-06T21:44:36.895Z,100183.91
2023-04-06T21:47:05.928Z,100188.75
2023-04-06T21:49:36.584Z,100188.83
2023-04-06T21:52:05.414Z,100191.26
2023-04-06T21:54:34.532Z,100193.02
2023-04-06T21:57:04.492Z,100198.88
2023-04-06T21:59:34.810Z,100200.27
2023-04-06T22:02:05.697Z,100200.63
2023-04-06T22:04:35.013Z,100205.09
2023-04-06T22:07:04.436Z,100205.42
2023-04-06T22:09:33.183Z,100209.84
2023-04-06T22:12:04.398Z,100212.23
2023-04-06T22:14:36.764Z,100205.78
2023-04-06T22:17:06.201Z,100212.78
2023-04-06T22:19:38.951Z,100208.69
2023-04-06T22:22:07.772Z,100210.39
2023-04-06T22:24:36.802Z,100215.35
2023-04-06T22:27:06.098Z,100212.48
2023-04-06T22:29:36.268Z,100215.88
2023-04-06T22:32:06.888Z,100212.99
2023-04-06T22:34:36.258Z,100215.90
2023-04-06T22:37:05.191Z,100209.27
2023-04-06T22:39:35.039Z,100219.80
2023-04-06T22:42:05.672Z,100223.56
2023-04-06T22:44:34.941Z,100219.83
2023-04-06T22:47:03.706Z,100220.17
2023-04-06T22:49:34.086Z,100221.53
2023-04-06T22:52:04.706Z,100217.77
2023-04-06T22:54:34.914Z,100219.80
2023-04-06T22:57:04.113Z,100228.34
2023-04-06T22:59:33.040Z,100229.03
2023-04-06T23:02:02.011Z,100232.79
2023-04-06T23:04:31.818Z,100225.31
2023-04-06T23:07:02.247Z,100230.09
2023-04-06T23:09:31.295Z,100231.97
2023-04-06T23:12:00.149Z,100222.09
2023-04-06T23:14:29.230Z,100225.85
2023-04-06T23:16:58.689Z,100223.13
2023-04-06T23:19:28.576Z,100225.66
2023-04-06T23:21:58.477Z,100226.36
2023-04-06T23:24:29.119Z,100225.51
2023-04-06T23:26:59.252Z,100219.91
2023-04-06T23:29:29.655Z,100226.89
2023-04-06T23:31:58.684Z,100233.89
2023-04-06T23:34:27.544Z,100241.72
2023-04-06T23:37:00.008Z,100235.42
2023-04-06T23:39:29.700Z,100243.09
2023-04-06T23:41:58.265Z,100241.39
2023-04-06T23:44:31.708Z,100246.52
2023-04-06T23:47:02.346Z,100257.78
2023-04-06T23:49:31.867Z,100253.20
2023-04-06T23:52:00.640Z,100250.66
2023-04-06T23:54:29.666Z,100251.83
2023-04-06T23:56:59.346Z,100255.58
2023-04-06T23:59:30.833Z,100258.48
